sensor_id;sensor_type;location;lat;lon;timestamp;P1;durP1;ratioP1;P2;durP2;ratioP2
23270;SDS011;11804;51.118;17.058;2023-12-28T00:00:20;8.80;;;3.90;;
23270;SDS011;11804;51.118;17.058;2023-12-28T00:02:48;11.53;;;4.30;;
23270;SDS011;11804;51.118;17.058;2023-12-28T00:05:15;12.53;;;4.37;;
23270;SDS011;11804;51.118;17.058;2023-12-28T00:07:43;13.90;;;5.50;;
23270;SDS011;11804;51.118;17.058;2023-12-28T00:10:11;16.47;;;5.83;;
23270;SDS011;11804;51.118;17.058;2023-12-28T00:12:38;13.67;;;4.80;;
23270;SDS011;11804;51.118;17.058;2023-12-28T00:15:06;10.10;;;4.97;;
23270;SDS011;11804;51.118;17.058;2023-12-28T00:17:35;12.77;;;3.73;;
23270;SDS011;11804;51.118;17.058;2023-12-28T00:20:03;8.63;;;4.40;;
23270;SDS011;11804;51.118;17.058;2023-12-28T00:22:31;9.33;;;4.23;;
23270;SDS011;11804;51.118;17.058;2023-12-28T00:24:59;12.87;;;4.33;;
23270;SDS011;11804;51.118;17.058;2023-12-28T00:27:26;10.53;;;4.03;;
23270;SDS011;11804;51.118;17.058;2023-12-28T00:29:54;10.87;;;4.57;;
23270;SDS011;11804;51.118;17.058;2023-12-28T00:32:21;7.23;;;3.37;;
23270;SDS011;11804;51.118;17.058;2023-12-28T00:34:49;10.40;;;3.70;;
23270;SDS011;11804;51.118;17.058;2023-12-28T00:37:16;9.97;;;4.87;;
23270;SDS011;11804;51.118;17.058;2023-12-28T00:39:44;10.53;;;4.70;;
23270;SDS011;11804;51.118;17.058;2023-12-28T00:42:12;11.60;;;4.50;;
23270;SDS011;11804;51.118;17.058;2023-12-28T00:44:40;12.37;;;4.97;;
23270;SDS011;11804;51.118;17.058;2023-12-28T00:47:08;12.43;;;4.40;;
23270;SDS011;11804;51.118;17.058;2023-12-28T00:49:36;12.80;;;5.50;;
23270;SDS011;11804;51.118;17.058;2023-12-28T00:52:04;17.57;;;5.27;;
23270;SDS011;11804;51.118;17.058;2023-12-28T00:54:32;13.57;;;6.17;;
23270;SDS011;11804;51.118;17.058;2023-12-28T00:56:59;13.07;;;6.03;;
23270;SDS011;11804;51.118;17.058;2023-12-28T00:59:27;14.20;;;6.07;;
23270;SDS011;11804;51.118;17.058;2023-12-28T01:01:55;9.83;;;3.77;;
23270;SDS011;11804;51.118;17.058;2023-12-28T01:04:23;9.33;;;4.93;;
23270;SDS011;11804;51.118;17.058;2023-12-28T01:06:56;15.60;;;5.83;;
23270;SDS011;11804;51.118;17.058;2023-12-28T01:09:21;16.80;;;5.87;;
23270;SDS011;11804;51.118;17.058;2023-12-28T01:11:49;11.47;;;4.40;;
23270;SDS011;11804;51.118;17.058;2023-12-28T01:14:16;13.53;;;5.60;;
23270;SDS011;11804;51.118;17.058;2023-12-28T01:16:44;13.77;;;5.00;;
23270;SDS011;11804;51.118;17.058;2023-12-28T01:19:11;12.33;;;5.93;;
23270;SDS011;11804;51.118;17.058;2023-12-28T01:21:39;19.80;;;5.63;;
23270;SDS011;11804;51.118;17.058;2023-12-28T01:24:06;9.87;;;4.73;;
23270;SDS011;11804;51.118;17.058;2023-12-28T01:26:34;13.37;;;5.07;;
23270;SDS011;11804;51.118;17.058;2023-12-28T01:29:02;13.17;;;5.40;;
23270;SDS011;11804;51.118;17.058;2023-12-28T01:31:30;15.33;;;5.63;;
23270;SDS011;11804;51.118;17.058;2023-12-28T01:33:57;12.03;;;4.93;;
23270;SDS011;11804;51.118;17.058;2023-12-28T01:36:25;11.37;;;5.13;;
23270;SDS011;11804;51.118;17.058;2023-12-28T01:38:54;9.17;;;4.70;;
23270;SDS011;11804;51.118;17.058;2023-12-28T01:41:22;16.63;;;5.37;;
23270;SDS011;11804;51.118;17.058;2023-12-28T01:43:49;10.50;;;4.93;;
23270;SDS011;11804;51.118;17.058;2023-12-28T01:46:17;16.83;;;5.97;;
23270;SDS011;11804;51.118;17.058;2023-12-28T01:48:48;12.87;;;5.60;;
23270;SDS011;11804;51.118;17.058;2023-12-28T01:51:17;12.63;;;5.57;;
23270;SDS011;11804;51.118;17.058;2023-12-28T01:53:45;13.53;;;6.10;;
23270;SDS011;11804;51.118;17.058;2023-12-28T01:56:15;17.40;;;6.20;;
23270;SDS011;11804;51.118;17.058;2023-12-28T01:58:43;11.47;;;5.00;;
23270;SDS011;11804;51.118;17.058;2023-12-28T02:01:12;10.40;;;4.77;;
23270;SDS011;11804;51.118;17.058;2023-12-28T02:03:40;9.17;;;4.73;;
23270;SDS011;11804;51.118;17.058;2023-12-28T02:06:08;10.43;;;5.30;;
23270;SDS011;11804;51.118;17.058;2023-12-28T02:08:36;13.37;;;5.17;;
23270;SDS011;11804;51.118;17.058;2023-12-28T02:11:04;14.77;;;5.67;;
23270;SDS011;11804;51.118;17.058;2023-12-28T02:13:32;16.57;;;5.10;;
23270;SDS011;11804;51.118;17.058;2023-12-28T02:16:43;8.97;;;5.07;;
23270;SDS011;11804;51.118;17.058;2023-12-28T02:18:46;11.03;;;4.50;;
23270;SDS011;11804;51.118;17.058;2023-12-28T02:21:12;12.37;;;4.90;;
23270;SDS011;11804;51.118;17.058;2023-12-28T02:23:49;13.40;;;4.53;;
23270;SDS011;11804;51.118;17.058;2023-12-28T02:26:17;7.00;;;4.57;;
23270;SDS011;11804;51.118;17.058;2023-12-28T02:28:45;11.73;;;4.87;;
23270;SDS011;11804;51.118;17.058;2023-12-28T02:31:14;12.27;;;4.87;;
23270;SDS011;11804;51.118;17.058;2023-12-28T02:33:47;13.33;;;5.80;;
23270;SDS011;11804;51.118;17.058;2023-12-28T02:36:18;13.37;;;5.20;;
23270;SDS011;11804;51.118;17.058;2023-12-28T02:38:47;10.60;;;4.20;;
23270;SDS011;11804;51.118;17.058;2023-12-28T02:41:17;11.30;;;5.00;;
23270;SDS011;11804;51.118;17.058;2023-12-28T02:43:46;9.03;;;4.20;;
23270;SDS011;11804;51.118;17.058;2023-12-28T02:46:15;9.03;;;3.53;;
23270;SDS011;11804;51.118;17.058;2023-12-28T02:48:43;9.10;;;4.30;;
23270;SDS011;11804;51.118;17.058;2023-12-28T02:51:11;9.93;;;3.53;;
23270;SDS011;11804;51.118;17.058;2023-12-28T02:53:38;6.57;;;4.27;;
23270;SDS011;11804;51.118;17.058;2023-12-28T02:56:06;14.93;;;5.20;;
23270;SDS011;11804;51.118;17.058;2023-12-28T02:58:34;13.70;;;4.90;;
23270;SDS011;11804;51.118;17.058;2023-12-28T03:01:01;8.13;;;3.87;;
23270;SDS011;11804;51.118;17.058;2023-12-28T03:03:29;12.57;;;5.33;;
23270;SDS011;11804;51.118;17.058;2023-12-28T03:05:56;10.07;;;5.10;;
23270;SDS011;11804;51.118;17.058;2023-12-28T03:08:24;9.30;;;4.17;;
23270;SDS011;11804;51.118;17.058;2023-12-28T03:10:52;8.37;;;3.97;;
23270;SDS011;11804;51.118;17.058;2023-12-28T03:13:21;10.93;;;4.50;;
23270;SDS011;11804;51.118;17.058;2023-12-28T03:15:48;8.30;;;4.33;;
23270;SDS011;11804;51.118;17.058;2023-12-28T03:18:16;9.43;;;3.57;;
23270;SDS011;11804;51.118;17.058;2023-12-28T03:20:45;10.00;;;3.80;;
23270;SDS011;11804;51.118;17.058;2023-12-28T03:23:12;10.23;;;4.23;;
23270;SDS011;11804;51.118;17.058;2023-12-28T03:25:43;13.67;;;3.70;;
23270;SDS011;11804;51.118;17.058;2023-12-28T03:28:12;6.67;;;2.57;;
23270;SDS011;11804;51.118;17.058;2023-12-28T03:30:39;6.63;;;3.07;;
23270;SDS011;11804;51.118;17.058;2023-12-28T03:33:07;7.17;;;3.17;;
23270;SDS011;11804;51.118;17.058;2023-12-28T03:35:34;8.77;;;3.23;;
23270;SDS011;11804;51.118;17.058;2023-12-28T03:38:02;10.63;;;3.40;;
23270;SDS011;11804;51.118;17.058;2023-12-28T03:40:30;9.33;;;3.57;;
23270;SDS011;11804;51.118;17.058;2023-12-28T03:42:57;5.70;;;3.00;;
23270;SDS011;11804;51.118;17.058;2023-12-28T03:45:25;6.57;;;2.30;;
23270;SDS011;11804;51.118;17.058;2023-12-28T03:47:52;8.90;;;4.37;;
23270;SDS011;11804;51.118;17.058;2023-12-28T03:50:20;5.77;;;2.37;;
23270;SDS011;11804;51.118;17.058;2023-12-28T03:52:47;4.83;;;2.27;;
23270;SDS011;11804;51.118;17.058;2023-12-28T03:55:15;8.87;;;3.50;;
23270;SDS011;11804;51.118;17.058;2023-12-28T03:57:42;5.63;;;2.70;;
23270;SDS011;11804;51.118;17.058;2023-12-28T04:00:12;4.30;;;1.97;;
23270;SDS011;11804;51.118;17.058;2023-12-28T04:02:40;4.30;;;2.50;;
23270;SDS011;11804;51.118;17.058;2023-12-28T04:05:08;5.23;;;2.37;;
23270;SDS011;11804;51.118;17.058;2023-12-28T04:07:35;4.23;;;2.30;;
23270;SDS011;11804;51.118;17.058;2023-12-28T04:10:03;5.27;;;3.00;;
23270;SDS011;11804;51.118;17.058;2023-12-28T04:12:31;6.10;;;3.33;;
23270;SDS011;11804;51.118;17.058;2023-12-28T04:14:58;5.60;;;2.27;;
23270;SDS011;11804;51.118;17.058;2023-12-28T04:17:26;4.13;;;2.20;;
23270;SDS011;11804;51.118;17.058;2023-12-28T04:19:53;5.80;;;2.50;;
23270;SDS011;11804;51.118;17.058;2023-12-28T04:22:21;3.60;;;1.90;;
23270;SDS011;11804;51.118;17.058;2023-12-28T04:24:48;4.43;;;1.70;;
23270;SDS011;11804;51.118;17.058;2023-12-28T04:27:16;4.13;;;2.10;;
23270;SDS011;11804;51.118;17.058;2023-12-28T04:29:43;6.37;;;1.60;;
23270;SDS011;11804;51.118;17.058;2023-12-28T04:32:12;6.90;;;3.37;;
23270;SDS011;11804;51.118;17.058;2023-12-28T04:34:39;3.73;;;2.33;;
23270;SDS011;11804;51.118;17.058;2023-12-28T04:37:08;5.53;;;2.43;;
23270;SDS011;11804;51.118;17.058;2023-12-28T04:39:35;2.37;;;2.10;;
23270;SDS011;11804;51.118;17.058;2023-12-28T04:42:04;7.93;;;2.93;;
23270;SDS011;11804;51.118;17.058;2023-12-28T04:44:31;10.50;;;4.00;;
23270;SDS011;11804;51.118;17.058;2023-12-28T04:47:00;3.37;;;2.07;;
23270;SDS011;11804;51.118;17.058;2023-12-28T04:49:28;4.40;;;2.67;;
23270;SDS011;11804;51.118;17.058;2023-12-28T04:51:56;4.50;;;1.97;;
23270;SDS011;11804;51.118;17.058;2023-12-28T04:54:23;7.23;;;1.57;;
23270;SDS011;11804;51.118;17.058;2023-12-28T04:56:51;3.07;;;1.67;;
23270;SDS011;11804;51.118;17.058;2023-12-28T04:59:18;5.27;;;2.03;;
23270;SDS011;11804;51.118;17.058;2023-12-28T05:01:46;4.33;;;1.90;;
23270;SDS011;11804;51.118;17.058;2023-12-28T05:04:16;5.00;;;2.40;;
23270;SDS011;11804;51.118;17.058;2023-12-28T05:06:44;2.43;;;1.37;;
23270;SDS011;11804;51.118;17.058;2023-12-28T05:09:11;3.20;;;2.00;;
23270;SDS011;11804;51.118;17.058;2023-12-28T05:11:39;4.17;;;1.63;;
23270;SDS011;11804;51.118;17.058;2023-12-28T05:14:06;1.93;;;1.73;;
23270;SDS011;11804;51.118;17.058;2023-12-28T05:16:34;4.27;;;1.50;;
23270;SDS011;11804;51.118;17.058;2023-12-28T05:19:02;3.40;;;1.60;;
23270;SDS011;11804;51.118;17.058;2023-12-28T05:21:30;3.03;;;1.87;;
23270;SDS011;11804;51.118;17.058;2023-12-28T05:23:57;3.90;;;1.50;;
23270;SDS011;11804;51.118;17.058;2023-12-28T05:26:25;2.17;;;1.20;;
23270;SDS011;11804;51.118;17.058;2023-12-28T05:28:53;3.17;;;1.60;;
23270;SDS011;11804;51.118;17.058;2023-12-28T05:31:20;5.50;;;2.57;;
23270;SDS011;11804;51.118;17.058;2023-12-28T05:33:48;6.70;;;1.53;;
23270;SDS011;11804;51.118;17.058;2023-12-28T05:36:15;2.37;;;1.20;;
23270;SDS011;11804;51.118;17.058;2023-12-28T05:38:43;2.27;;;1.10;;
23270;SDS011;11804;51.118;17.058;2023-12-28T05:41:10;1.73;;;0.73;;
23270;SDS011;11804;51.118;17.058;2023-12-28T05:43:39;2.10;;;0.93;;
23270;SDS011;11804;51.118;17.058;2023-12-28T05:46:07;1.57;;;0.90;;
23270;SDS011;11804;51.118;17.058;2023-12-28T05:48:34;3.63;;;1.70;;
23270;SDS011;11804;51.118;17.058;2023-12-28T05:51:04;1.93;;;0.87;;
23270;SDS011;11804;51.118;17.058;2023-12-28T05:53:32;2.13;;;1.00;;
23270;SDS011;11804;51.118;17.058;2023-12-28T05:56:00;1.13;;;0.70;;
23270;SDS011;11804;51.118;17.058;2023-12-28T05:58:29;2.77;;;0.90;;
23270;SDS011;11804;51.118;17.058;2023-12-28T06:00:57;1.10;;;0.70;;
23270;SDS011;11804;51.118;17.058;2023-12-28T06:03:24;1.20;;;0.90;;
23270;SDS011;11804;51.118;17.058;2023-12-28T06:05:54;2.37;;;0.70;;
23270;SDS011;11804;51.118;17.058;2023-12-28T06:08:21;1.70;;;0.87;;
23270;SDS011;11804;51.118;17.058;2023-12-28T06:10:49;3.90;;;1.60;;
23270;SDS011;11804;51.118;17.058;2023-12-28T06:13:17;2.03;;;1.37;;
23270;SDS011;11804;51.118;17.058;2023-12-28T06:15:46;3.67;;;1.33;;
23270;SDS011;11804;51.118;17.058;2023-12-28T06:18:13;2.17;;;1.40;;
23270;SDS011;11804;51.118;17.058;2023-12-28T06:20:41;1.60;;;1.13;;
23270;SDS011;11804;51.118;17.058;2023-12-28T06:23:08;2.70;;;1.43;;
23270;SDS011;11804;51.118;17.058;2023-12-28T06:25:36;2.37;;;1.20;;
23270;SDS011;11804;51.118;17.058;2023-12-28T06:28:04;1.33;;;0.77;;
23270;SDS011;11804;51.118;17.058;2023-12-28T06:30:31;1.90;;;0.87;;
23270;SDS011;11804;51.118;17.058;2023-12-28T06:32:59;1.40;;;0.60;;
23270;SDS011;11804;51.118;17.058;2023-12-28T06:35:26;2.27;;;1.10;;
23270;SDS011;11804;51.118;17.058;2023-12-28T06:37:54;1.60;;;0.87;;
23270;SDS011;11804;51.118;17.058;2023-12-28T06:40:21;1.40;;;0.63;;
23270;SDS011;11804;51.118;17.058;2023-12-28T06:42:49;1.40;;;0.80;;
23270;SDS011;11804;51.118;17.058;2023-12-28T06:45:16;1.27;;;0.70;;
23270;SDS011;11804;51.118;17.058;2023-12-28T06:47:44;1.77;;;1.00;;
23270;SDS011;11804;51.118;17.058;2023-12-28T06:50:12;0.90;;;0.80;;
23270;SDS011;11804;51.118;17.058;2023-12-28T06:52:39;1.43;;;0.83;;
23270;SDS011;11804;51.118;17.058;2023-12-28T06:55:07;1.47;;;0.80;;
23270;SDS011;11804;51.118;17.058;2023-12-28T06:57:34;1.60;;;0.83;;
23270;SDS011;11804;51.118;17.058;2023-12-28T07:00:02;1.83;;;0.60;;
23270;SDS011;11804;51.118;17.058;2023-12-28T07:02:30;1.33;;;0.83;;
23270;SDS011;11804;51.118;17.058;2023-12-28T07:04:57;2.00;;;0.90;;
23270;SDS011;11804;51.118;17.058;2023-12-28T07:07:25;0.83;;;0.60;;
23270;SDS011;11804;51.118;17.058;2023-12-28T07:09:52;0.97;;;0.67;;
23270;SDS011;11804;51.118;17.058;2023-12-28T07:12:21;2.30;;;1.13;;
23270;SDS011;11804;51.118;17.058;2023-12-28T07:14:50;4.13;;;1.30;;
23270;SDS011;11804;51.118;17.058;2023-12-28T07:17:17;4.63;;;1.97;;
23270;SDS011;11804;51.118;17.058;2023-12-28T07:19:45;14.47;;;5.17;;
23270;SDS011;11804;51.118;17.058;2023-12-28T07:22:12;10.20;;;2.93;;
23270;SDS011;11804;51.118;17.058;2023-12-28T07:24:40;9.73;;;2.60;;
23270;SDS011;11804;51.118;17.058;2023-12-28T07:27:07;4.97;;;1.63;;
23270;SDS011;11804;51.118;17.058;2023-12-28T07:29:35;3.43;;;1.70;;
23270;SDS011;11804;51.118;17.058;2023-12-28T07:32:02;6.37;;;1.87;;
23270;SDS011;11804;51.118;17.058;2023-12-28T07:34:30;4.53;;;1.70;;
23270;SDS011;11804;51.118;17.058;2023-12-28T07:36:58;8.57;;;2.70;;
23270;SDS011;11804;51.118;17.058;2023-12-28T07:39:25;3.73;;;1.47;;
23270;SDS011;11804;51.118;17.058;2023-12-28T07:41:53;5.40;;;2.10;;
23270;SDS011;11804;51.118;17.058;2023-12-28T07:44:20;4.53;;;1.73;;
23270;SDS011;11804;51.118;17.058;2023-12-28T07:46:49;5.87;;;1.70;;
23270;SDS011;11804;51.118;17.058;2023-12-28T07:49:16;4.47;;;1.70;;
23270;SDS011;11804;51.118;17.058;2023-12-28T07:51:44;5.57;;;1.53;;
23270;SDS011;11804;51.118;17.058;2023-12-28T07:54:12;6.00;;;1.90;;
23270;SDS011;11804;51.118;17.058;2023-12-28T07:56:39;5.97;;;2.17;;
23270;SDS011;11804;51.118;17.058;2023-12-28T07:59:07;4.43;;;1.60;;
23270;SDS011;11804;51.118;17.058;2023-12-28T08:01:35;3.20;;;1.47;;
23270;SDS011;11804;51.118;17.058;2023-12-28T08:04:02;3.93;;;1.10;;
23270;SDS011;11804;51.118;17.058;2023-12-28T08:06:30;4.00;;;1.33;;
23270;SDS011;11804;51.118;17.058;2023-12-28T08:08:58;2.17;;;1.10;;
23270;SDS011;11804;51.118;17.058;2023-12-28T08:11:26;1.93;;;1.27;;
23270;SDS011;11804;51.118;17.058;2023-12-28T08:13:54;3.57;;;1.53;;
23270;SDS011;11804;51.118;17.058;2023-12-28T08:16:27;5.07;;;0.87;;
23270;SDS011;11804;51.118;17.058;2023-12-28T08:18:52;1.07;;;0.80;;
23270;SDS011;11804;51.118;17.058;2023-12-28T08:21:20;2.03;;;1.07;;
23270;SDS011;11804;51.118;17.058;2023-12-28T08:23:47;3.13;;;0.80;;
23270;SDS011;11804;51.118;17.058;2023-12-28T08:26:15;3.23;;;1.07;;
23270;SDS011;11804;51.118;17.058;2023-12-28T08:28:42;2.73;;;1.20;;
23270;SDS011;11804;51.118;17.058;2023-12-28T08:31:10;2.03;;;0.83;;
23270;SDS011;11804;51.118;17.058;2023-12-28T08:33:38;2.20;;;1.17;;
23270;SDS011;11804;51.118;17.058;2023-12-28T08:36:06;2.77;;;1.43;;
23270;SDS011;11804;51.118;17.058;2023-12-28T08:38:34;1.37;;;0.73;;
23270;SDS011;11804;51.118;17.058;2023-12-28T08:41:02;3.83;;;1.70;;
23270;SDS011;11804;51.118;17.058;2023-12-28T08:43:31;1.63;;;0.80;;
23270;SDS011;11804;51.118;17.058;2023-12-28T08:45:58;2.03;;;0.90;;
23270;SDS011;11804;51.118;17.058;2023-12-28T08:48:26;3.17;;;1.57;;
23270;SDS011;11804;51.118;17.058;2023-12-28T08:50:54;1.27;;;0.90;;
23270;SDS011;11804;51.118;17.058;2023-12-28T08:53:21;3.27;;;1.00;;
23270;SDS011;11804;51.118;17.058;2023-12-28T08:55:49;3.20;;;1.43;;
23270;SDS011;11804;51.118;17.058;2023-12-28T08:58:16;1.97;;;1.07;;
23270;SDS011;11804;51.118;17.058;2023-12-28T09:00:44;1.03;;;0.80;;
23270;SDS011;11804;51.118;17.058;2023-12-28T09:03:13;3.53;;;1.57;;
23270;SDS011;11804;51.118;17.058;2023-12-28T09:05:41;2.80;;;1.40;;
23270;SDS011;11804;51.118;17.058;2023-12-28T09:08:08;2.90;;;1.17;;
23270;SDS011;11804;51.118;17.058;2023-12-28T09:10:36;2.03;;;1.10;;
23270;SDS011;11804;51.118;17.058;2023-12-28T09:13:04;3.80;;;1.17;;
23270;SDS011;11804;51.118;17.058;2023-12-28T09:15:31;4.47;;;1.27;;
23270;SDS011;11804;51.118;17.058;2023-12-28T09:17:59;2.00;;;1.00;;
23270;SDS011;11804;51.118;17.058;2023-12-28T09:20:26;3.30;;;1.40;;
23270;SDS011;11804;51.118;17.058;2023-12-28T09:22:54;3.00;;;1.10;;
23270;SDS011;11804;51.118;17.058;2023-12-28T09:25:22;3.67;;;1.17;;
23270;SDS011;11804;51.118;17.058;2023-12-28T09:27:50;1.63;;;0.97;;
23270;SDS011;11804;51.118;17.058;2023-12-28T09:30:17;3.13;;;1.40;;
23270;SDS011;11804;51.118;17.058;2023-12-28T09:32:45;1.90;;;1.17;;
23270;SDS011;11804;51.118;17.058;2023-12-28T09:35:12;2.60;;;0.93;;
23270;SDS011;11804;51.118;17.058;2023-12-28T09:37:40;3.27;;;1.00;;
23270;SDS011;11804;51.118;17.058;2023-12-28T09:40:08;2.90;;;0.93;;
23270;SDS011;11804;51.118;17.058;2023-12-28T09:42:48;2.23;;;1.20;;
23270;SDS011;11804;51.118;17.058;2023-12-28T09:45:33;5.63;;;1.00;;
23270;SDS011;11804;51.118;17.058;2023-12-28T09:48:01;1.67;;;1.00;;
23270;SDS011;11804;51.118;17.058;2023-12-28T09:50:30;2.13;;;1.67;;
23270;SDS011;11804;51.118;17.058;2023-12-28T09:52:58;2.17;;;1.00;;
23270;SDS011;11804;51.118;17.058;2023-12-28T09:55:26;2.70;;;0.97;;
23270;SDS011;11804;51.118;17.058;2023-12-28T09:57:53;4.03;;;1.20;;
23270;SDS011;11804;51.118;17.058;2023-12-28T10:00:24;3.30;;;1.70;;
23270;SDS011;11804;51.118;17.058;2023-12-28T10:02:54;3.30;;;2.03;;
23270;SDS011;11804;51.118;17.058;2023-12-28T10:05:22;2.33;;;1.60;;
23270;SDS011;11804;51.118;17.058;2023-12-28T10:07:50;1.73;;;1.07;;
23270;SDS011;11804;51.118;17.058;2023-12-28T10:10:17;1.67;;;1.00;;
23270;SDS011;11804;51.118;17.058;2023-12-28T10:12:47;1.90;;;1.17;;
23270;SDS011;11804;51.118;17.058;2023-12-28T10:15:14;3.83;;;1.70;;
23270;SDS011;11804;51.118;17.058;2023-12-28T10:17:42;2.17;;;1.30;;
23270;SDS011;11804;51.118;17.058;2023-12-28T10:20:09;3.43;;;1.40;;
23270;SDS011;11804;51.118;17.058;2023-12-28T10:22:37;2.57;;;1.10;;
23270;SDS011;11804;51.118;17.058;2023-12-28T10:25:05;2.97;;;1.40;;
23270;SDS011;11804;51.118;17.058;2023-12-28T10:27:36;2.10;;;1.20;;
23270;SDS011;11804;51.118;17.058;2023-12-28T10:30:09;1.63;;;1.13;;
23270;SDS011;11804;51.118;17.058;2023-12-28T10:32:40;2.33;;;1.20;;
23270;SDS011;11804;51.118;17.058;2023-12-28T10:35:07;2.80;;;1.60;;
23270;SDS011;11804;51.118;17.058;2023-12-28T10:37:35;3.97;;;1.50;;
23270;SDS011;11804;51.118;17.058;2023-12-28T10:40:05;1.97;;;1.60;;
23270;SDS011;11804;51.118;17.058;2023-12-28T10:42:37;2.63;;;1.13;;
23270;SDS011;11804;51.118;17.058;2023-12-28T10:45:21;3.53;;;1.53;;
23270;SDS011;11804;51.118;17.058;2023-12-28T10:48:05;2.53;;;1.33;;
23270;SDS011;11804;51.118;17.058;2023-12-28T10:50:40;2.47;;;1.33;;
23270;SDS011;11804;51.118;17.058;2023-12-28T10:53:19;9.60;;;1.80;;
23270;SDS011;11804;51.118;17.058;2023-12-28T11:01:09;5.93;;;1.47;;
23270;SDS011;11804;51.118;17.058;2023-12-28T11:03:38;2.60;;;1.47;;
23270;SDS011;11804;51.118;17.058;2023-12-28T11:06:08;2.00;;;1.40;;
23270;SDS011;11804;51.118;17.058;2023-12-28T11:08:38;4.63;;;1.50;;
23270;SDS011;11804;51.118;17.058;2023-12-28T11:11:09;2.07;;;1.27;;
23270;SDS011;11804;51.118;17.058;2023-12-28T11:13:39;2.30;;;1.40;;
23270;SDS011;11804;51.118;17.058;2023-12-28T11:16:07;2.70;;;1.30;;
23270;SDS011;11804;51.118;17.058;2023-12-28T11:18:36;8.70;;;1.70;;
23270;SDS011;11804;51.118;17.058;2023-12-28T11:21:03;3.27;;;1.53;;
23270;SDS011;11804;51.118;17.058;2023-12-28T11:23:31;3.23;;;1.47;;
23270;SDS011;11804;51.118;17.058;2023-12-28T11:26:00;2.07;;;1.53;;
23270;SDS011;11804;51.118;17.058;2023-12-28T11:28:28;2.90;;;1.53;;
23270;SDS011;11804;51.118;17.058;2023-12-28T11:30:56;4.10;;;1.67;;
23270;SDS011;11804;51.118;17.058;2023-12-28T11:33:29;3.10;;;1.93;;
23270;SDS011;11804;51.118;17.058;2023-12-28T11:35:54;2.10;;;1.20;;
23270;SDS011;11804;51.118;17.058;2023-12-28T11:38:21;3.90;;;1.30;;
23270;SDS011;11804;51.118;17.058;2023-12-28T11:40:50;1.77;;;1.00;;
23270;SDS011;11804;51.118;17.058;2023-12-28T11:43:20;2.40;;;1.30;;
23270;SDS011;11804;51.118;17.058;2023-12-28T11:45:49;2.77;;;1.40;;
23270;SDS011;11804;51.118;17.058;2023-12-28T11:48:22;2.53;;;1.50;;
23270;SDS011;11804;51.118;17.058;2023-12-28T11:50:59;7.43;;;1.57;;
23270;SDS011;11804;51.118;17.058;2023-12-28T11:53:28;1.87;;;1.30;;
23270;SDS011;11804;51.118;17.058;2023-12-28T11:56:00;3.80;;;1.83;;
23270;SDS011;11804;51.118;17.058;2023-12-28T11:58:29;2.20;;;1.17;;
23270;SDS011;11804;51.118;17.058;2023-12-28T12:00:58;6.60;;;1.60;;
23270;SDS011;11804;51.118;17.058;2023-12-28T12:03:32;2.80;;;1.70;;
23270;SDS011;11804;51.118;17.058;2023-12-28T12:05:56;1.70;;;1.13;;
23270;SDS011;11804;51.118;17.058;2023-12-28T12:08:24;3.30;;;1.47;;
23270;SDS011;11804;51.118;17.058;2023-12-28T12:11:01;1.53;;;1.27;;
23270;SDS011;11804;51.118;17.058;2023-12-28T12:13:32;3.27;;;1.57;;
23270;SDS011;11804;51.118;17.058;2023-12-28T12:16:02;2.93;;;1.20;;
23270;SDS011;11804;51.118;17.058;2023-12-28T12:18:36;1.83;;;1.40;;
23270;SDS011;11804;51.118;17.058;2023-12-28T12:21:01;5.13;;;1.63;;
23270;SDS011;11804;51.118;17.058;2023-12-28T12:23:31;2.13;;;1.20;;
23270;SDS011;11804;51.118;17.058;2023-12-28T12:26:00;5.83;;;1.50;;
23270;SDS011;11804;51.118;17.058;2023-12-28T12:28:30;3.03;;;1.30;;
23270;SDS011;11804;51.118;17.058;2023-12-28T12:30:57;1.97;;;1.17;;
23270;SDS011;11804;51.118;17.058;2023-12-28T12:33:30;3.50;;;1.50;;
23270;SDS011;11804;51.118;17.058;2023-12-28T12:36:00;2.83;;;1.50;;
23270;SDS011;11804;51.118;17.058;2023-12-28T12:38:33;3.33;;;1.30;;
23270;SDS011;11804;51.118;17.058;2023-12-28T12:40:58;3.47;;;1.60;;
23270;SDS011;11804;51.118;17.058;2023-12-28T12:43:26;2.70;;;1.70;;
23270;SDS011;11804;51.118;17.058;2023-12-28T12:45:53;3.20;;;1.30;;
23270;SDS011;11804;51.118;17.058;2023-12-28T12:48:21;3.43;;;1.57;;
23270;SDS011;11804;51.118;17.058;2023-12-28T12:50:48;3.53;;;1.67;;
23270;SDS011;11804;51.118;17.058;2023-12-28T12:53:17;3.93;;;1.60;;
23270;SDS011;11804;51.118;17.058;2023-12-28T12:55:45;3.30;;;1.50;;
23270;SDS011;11804;51.118;17.058;2023-12-28T12:58:13;3.37;;;1.47;;
23270;SDS011;11804;51.118;17.058;2023-12-28T13:00:44;1.93;;;1.13;;
23270;SDS011;11804;51.118;17.058;2023-12-28T13:03:12;8.47;;;1.73;;
23270;SDS011;11804;51.118;17.058;2023-12-28T13:05:42;2.60;;;1.40;;
23270;SDS011;11804;51.118;17.058;2023-12-28T13:08:10;4.17;;;1.97;;
23270;SDS011;11804;51.118;17.058;2023-12-28T13:10:37;1.67;;;1.27;;
23270;SDS011;11804;51.118;17.058;2023-12-28T13:13:08;3.60;;;1.60;;
23270;SDS011;11804;51.118;17.058;2023-12-28T13:15:35;3.13;;;1.40;;
23270;SDS011;11804;51.118;17.058;2023-12-28T13:18:03;2.43;;;1.20;;
23270;SDS011;11804;51.118;17.058;2023-12-28T13:20:31;2.27;;;1.33;;
23270;SDS011;11804;51.118;17.058;2023-12-28T13:22:58;5.63;;;1.50;;
23270;SDS011;11804;51.118;17.058;2023-12-28T13:25:27;2.67;;;1.37;;
23270;SDS011;11804;51.118;17.058;2023-12-28T13:27:55;2.83;;;1.50;;
23270;SDS011;11804;51.118;17.058;2023-12-28T13:30:22;3.87;;;1.63;;
23270;SDS011;11804;51.118;17.058;2023-12-28T13:32:52;5.07;;;1.57;;
23270;SDS011;11804;51.118;17.058;2023-12-28T13:35:19;4.37;;;1.33;;
23270;SDS011;11804;51.118;17.058;2023-12-28T13:37:47;2.93;;;1.80;;
23270;SDS011;11804;51.118;17.058;2023-12-28T13:40:14;5.23;;;2.13;;
23270;SDS011;11804;51.118;17.058;2023-12-28T13:42:42;3.77;;;1.37;;
23270;SDS011;11804;51.118;17.058;2023-12-28T13:45:09;4.90;;;1.77;;
23270;SDS011;11804;51.118;17.058;2023-12-28T13:47:38;4.13;;;1.70;;
23270;SDS011;11804;51.118;17.058;2023-12-28T13:50:05;5.10;;;1.90;;
23270;SDS011;11804;51.118;17.058;2023-12-28T13:52:33;2.67;;;1.73;;
23270;SDS011;11804;51.118;17.058;2023-12-28T13:55:01;2.97;;;1.50;;
23270;SDS011;11804;51.118;17.058;2023-12-28T13:57:28;4.23;;;1.83;;
23270;SDS011;11804;51.118;17.058;2023-12-28T13:59:58;2.00;;;1.20;;
23270;SDS011;11804;51.118;17.058;2023-12-28T14:02:29;2.10;;;1.53;;
23270;SDS011;11804;51.118;17.058;2023-12-28T14:04:56;3.50;;;1.47;;
23270;SDS011;11804;51.118;17.058;2023-12-28T14:07:23;2.67;;;1.60;;
23270;SDS011;11804;51.118;17.058;2023-12-28T14:09:51;6.20;;;2.00;;
23270;SDS011;11804;51.118;17.058;2023-12-28T14:12:19;4.37;;;2.00;;
23270;SDS011;11804;51.118;17.058;2023-12-28T14:14:46;10.90;;;2.63;;
23270;SDS011;11804;51.118;17.058;2023-12-28T14:17:14;3.17;;;1.90;;
23270;SDS011;11804;51.118;17.058;2023-12-28T14:19:43;4.77;;;2.17;;
23270;SDS011;11804;51.118;17.058;2023-12-28T14:22:11;4.47;;;1.97;;
23270;SDS011;11804;51.118;17.058;2023-12-28T14:24:39;5.07;;;1.93;;
23270;SDS011;11804;51.118;17.058;2023-12-28T14:27:08;2.67;;;1.73;;
23270;SDS011;11804;51.118;17.058;2023-12-28T14:29:37;6.60;;;2.60;;
23270;SDS011;11804;51.118;17.058;2023-12-28T14:32:05;2.93;;;1.87;;
23270;SDS011;11804;51.118;17.058;2023-12-28T14:34:34;5.30;;;2.30;;
23270;SDS011;11804;51.118;17.058;2023-12-28T14:37:02;2.87;;;1.90;;
23270;SDS011;11804;51.118;17.058;2023-12-28T14:39:30;4.80;;;2.27;;
23270;SDS011;11804;51.118;17.058;2023-12-28T14:41:59;4.40;;;1.93;;